DTTX/SFA METAR and TAF weather

Enter ICAO airport designator
Station Type Date Time Source
DTTX METAR 2018/07/21 23:00 UTC NOAA

DTTX 212300Z 14005KT 110V170 CAVOK 29/22 Q1011 NOSIG


Station Type Date Time Source
DTTX Decoded METAR 2018/07/21 23:00 UTC NOAA

Sfax El-Maou, Tunisia (DTTX) 34-43N 010-41E 23M
Jul 21, 2018 - 07:00 PM EDT / 2018.07.21 2300 UTC
Wind: from the SE (140 degrees) at 6 MPH (5 KT) (direction variable):0
Visibility: greater than 7 mile(s):0
Temperature: 84 F (29 C)
Dew Point: 71 F (22 C)
Relative Humidity: 65%
Pressure (altimeter): 29.85 in. Hg (1011 hPa)
ob: DTTX 212300Z 14005KT 110V170 CAVOK 29/22 Q1011 NOSIG
cycle: 23

Station Type Date Time Source
DTTX TAF 2018/07/21 18:03 UTC NOAA

TAF DTTX 211700Z 2118/2218 14010KT CAVOK PROB40
TEMPO 2119/2123 13015G25KT 4000 TSRA FEW026CB


Example: see airport list